Time;durP1;ratioP1;P1;durP2;ratioP2;P2;SDS_P1;SDS_P2;PMS_P1;PMS_P2;Temp;Humidity;BMP_temperature;BMP_pressure;BME280_temperature;BME280_humidity;BME280_pressure;Samples;Min_cycle;Max_cycle;Signal;HPM_P1;HPM_P2
2023/05/24 00:00:05;;;;;;;;;;;21.20;92.20;;;;;;5075942;28;20013;-66
2023/05/24 00:02:30;;;;;;;;;;;21.20;92.30;;;;;;5094172;28;20347;-66
2023/05/24 00:04:59;;;;;;;;;;;21.20;92.30;;;;;;5094105;28;19961;-66
2023/05/24 00:07:25;;;;;;;;;;;21.20;92.30;;;;;;5093998;28;19908;-66
2023/05/24 00:09:50;;;;;;;;;;;21.20;92.20;;;;;;5094094;28;19908;-66
2023/05/24 00:12:16;;;;;;;;;;;21.20;92.20;;;;;;5094058;28;19954;-66
2023/05/24 00:14:41;;;;;;;;;;;21.20;92.20;;;;;;5094026;28;19908;-66
2023/05/24 00:17:07;;;;;;;;;;;21.10;92.10;;;;;;5093733;28;20351;-66
2023/05/24 00:19:33;;;;;;;;;;;21.10;92.20;;;;;;5093914;28;19916;-67
2023/05/24 00:21:58;;;;;;;;;;;21.20;92.20;;;;;;5075767;28;20355;-66
2023/05/24 00:24:23;;;;;;;;;;;21.10;92.20;;;;;;5093906;28;19908;-66
2023/05/24 00:26:49;;;;;;;;;;;21.10;92.20;;;;;;5093887;28;19908;-66
2023/05/24 00:29:15;;;;;;;;;;;21.10;92.20;;;;;;5093902;28;20359;-66
2023/05/24 00:31:40;;;;;;;;;;;21.10;92.30;;;;;;5096364;28;19969;-66
2023/05/24 00:34:06;;;;;;;;;;;21.10;92.30;;;;;;5097858;28;19908;-66
2023/05/24 00:36:32;;;;;;;;;;;21.10;92.30;;;;;;5097565;28;19908;-68
2023/05/24 00:38:57;;;;;;;;;;;21.10;92.30;;;;;;5079457;28;20015;-66
2023/05/24 00:41:23;;;;;;;;;;;21.10;92.20;;;;;;5097640;28;19912;-67
2023/05/24 00:43:48;;;;;;;;;;;21.10;92.30;;;;;;5097589;28;19974;-66
2023/05/24 00:46:15;;;;;;;;;;;21.10;92.20;;;;;;5097320;28;20027;-66
2023/05/24 00:48:41;;;;;;;;;;;21.10;92.30;;;;;;5097196;28;20374;-66
2023/05/24 00:51:07;;;;;;;;;;;21.10;92.30;;;;;;5097492;28;19914;-66
2023/05/24 00:53:34;;;;;;;;;;;21.10;92.30;;;;;;5097152;28;19995;-67
2023/05/24 00:56:00;;;;;;;;;;;21.10;92.30;;;;;;5097415;28;19955;-66
2023/05/24 00:58:29;;;;;;;;;;;21.10;92.20;;;;;;5097318;28;19955;-66
2023/05/24 01:00:58;;;;;;;;;;;21.10;92.20;;;;;;5097284;28;19998;-67
2023/05/24 01:03:25;;;;;;;;;;;21.10;92.30;;;;;;5097255;28;19953;-66
2023/05/24 01:05:51;;;;;;;;;;;21.10;92.30;;;;;;5097206;28;19908;-66
2023/05/24 01:08:35;;;;;;;;;;;21.10;92.30;;;;;;5097201;28;19908;-66
2023/05/24 01:11:05;;;;;;;;;;;21.10;92.20;;;;;;5097187;28;19908;-67
2023/05/24 01:13:44;;;;;;;;;;;21.10;92.30;;;;;;5078864;28;20419;-66
2023/05/24 01:16:11;;;;;;;;;;;21.10;92.30;;;;;;5096809;28;19915;-66
2023/05/24 01:18:43;;;;;;;;;;;21.10;92.30;;;;;;5096927;28;19908;-66
2023/05/24 01:21:11;;;;;;;;;;;21.10;92.30;;;;;;5078797;28;20362;-66
2023/05/24 01:23:46;;;;;;;;;;;21.10;92.30;;;;;;5097237;28;19934;-65
2023/05/24 01:26:20;;;;;;;;;;;21.10;92.40;;;;;;5096565;28;20021;-66
2023/05/24 01:28:49;;;;;;;;;;;21.00;92.30;;;;;;5096815;28;20001;-66
2023/05/24 01:31:15;;;;;;;;;;;21.00;92.40;;;;;;5096575;28;19908;-66
2023/05/24 01:33:41;;;;;;;;;;;21.00;92.30;;;;;;5096711;28;19909;-66
2023/05/24 01:36:07;;;;;;;;;;;21.00;92.40;;;;;;5078547;28;19915;-66
2023/05/24 01:38:32;;;;;;;;;;;21.00;92.40;;;;;;5096585;28;19908;-67
2023/05/24 01:41:03;;;;;;;;;;;21.00;92.40;;;;;;5096336;28;19999;-67
2023/05/24 01:43:39;;;;;;;;;;;21.00;92.40;;;;;;5095565;28;19920;-66
2023/05/24 01:46:24;;;;;;;;;;;21.00;92.40;;;;;;5096803;28;19908;-66
2023/05/24 01:48:49;;;;;;;;;;;21.00;92.40;;;;;;5096318;28;20358;-66
2023/05/24 01:51:17;;;;;;;;;;;21.00;92.40;;;;;;5096408;28;20003;-66
2023/05/24 01:53:45;;;;;;;;;;;21.00;92.60;;;;;;5096685;28;20002;-66
2023/05/24 01:56:12;;;;;;;;;;;21.00;92.40;;;;;;5096183;28;19915;-67
2023/05/24 01:58:39;;;;;;;;;;;21.00;92.40;;;;;;5096227;28;19908;-66
2023/05/24 02:01:05;;;;;;;;;;;21.00;92.40;;;;;;5096530;28;19915;-66
2023/05/24 02:03:31;;;;;;;;;;;21.00;92.40;;;;;;5096155;28;19931;-67
2023/05/24 02:05:56;;;;;;;;;;;21.00;92.50;;;;;;5095787;28;20362;-68
2023/05/24 02:08:22;;;;;;;;;;;21.00;92.50;;;;;;5096073;28;19919;-67
2023/05/24 02:10:47;;;;;;;;;;;21.00;92.50;;;;;;5095773;28;19959;-67
2023/05/24 02:13:15;;;;;;;;;;;21.00;92.60;;;;;;5095697;28;19915;-66
2023/05/24 02:15:40;;;;;;;;;;;21.00;92.60;;;;;;5095657;28;20266;-66
2023/05/24 02:18:06;;;;;;;;;;;21.00;92.60;;;;;;5095837;28;19908;-66
2023/05/24 02:20:35;;;;;;;;;;;21.00;92.60;;;;;;5077534;28;20359;-67
2023/05/24 02:23:04;;;;;;;;;;;21.00;92.60;;;;;;5095801;28;19943;-67
2023/05/24 02:25:30;;;;;;;;;;;21.00;92.60;;;;;;5095707;28;20393;-66
2023/05/24 02:27:56;;;;;;;;;;;21.00;92.60;;;;;;5096004;28;19912;-67
2023/05/24 02:30:21;;;;;;;;;;;21.00;92.60;;;;;;5095646;28;20324;-67
2023/05/24 02:32:47;;;;;;;;;;;21.00;92.60;;;;;;5077511;28;20415;-66
2023/05/24 02:35:12;;;;;;;;;;;21.00;92.60;;;;;;5095541;28;20258;-66
2023/05/24 02:37:38;;;;;;;;;;;21.00;92.60;;;;;;5095815;28;19914;-65
2023/05/24 02:40:04;;;;;;;;;;;21.00;92.60;;;;;;5095365;28;19916;-67
2023/05/24 02:42:29;;;;;;;;;;;21.00;92.60;;;;;;5095405;28;19933;-67
2023/05/24 02:44:55;;;;;;;;;;;21.00;92.60;;;;;;5095423;28;19924;-66
2023/05/24 02:47:20;;;;;;;;;;;21.00;92.60;;;;;;5095385;28;19915;-67
2023/05/24 02:49:46;;;;;;;;;;;21.00;92.70;;;;;;5094993;28;19908;-66
2023/05/24 02:52:12;;;;;;;;;;;21.00;92.70;;;;;;5095240;28;19908;-66
2023/05/24 02:54:38;;;;;;;;;;;21.00;92.70;;;;;;5095586;28;19915;-68
2023/05/24 02:57:05;;;;;;;;;;;21.00;92.80;;;;;;5095279;28;20343;-67
2023/05/24 02:59:31;;;;;;;;;;;20.90;92.70;;;;;;5094990;28;20272;-66
2023/05/24 03:01:56;;;;;;;;;;;21.00;92.80;;;;;;5094742;28;19934;-66
2023/05/24 03:04:22;;;;;;;;;;;20.90;92.70;;;;;;5094758;28;19957;-67
2023/05/24 03:06:47;;;;;;;;;;;20.90;92.70;;;;;;5094981;28;19915;-67
2023/05/24 03:09:15;;;;;;;;;;;20.90;92.80;;;;;;5094915;28;20370;-66
2023/05/24 03:11:40;;;;;;;;;;;20.90;92.70;;;;;;5092148;28;19913;-66
2023/05/24 03:14:05;;;;;;;;;;;20.90;92.80;;;;;;5094494;28;19908;-67
2023/05/24 03:16:31;;;;;;;;;;;20.90;92.90;;;;;;5094666;28;19999;-67
2023/05/24 03:18:58;;;;;;;;;;;20.90;93.10;;;;;;5095849;28;20358;-67
2023/05/24 03:21:24;;;;;;;;;;;20.90;92.90;;;;;;5102906;28;20355;-67
2023/05/24 03:23:49;;;;;;;;;;;20.90;93.00;;;;;;5115346;28;20044;-68
2023/05/24 03:26:15;;;;;;;;;;;20.90;93.00;;;;;;5085567;28;19916;-66
2023/05/24 03:28:41;;;;;;;;;;;20.90;93.10;;;;;;5092334;28;20244;-66
2023/05/24 03:31:06;;;;;;;;;;;20.90;93.10;;;;;;5094512;28;19939;-67
2023/05/24 03:33:32;;;;;;;;;;;20.90;93.10;;;;;;5094338;28;19957;-66
2023/05/24 03:35:57;;;;;;;;;;;20.90;93.00;;;;;;5094149;28;19904;-66
2023/05/24 03:38:23;;;;;;;;;;;20.90;93.10;;;;;;5094241;28;19904;-66
2023/05/24 03:40:48;;;;;;;;;;;20.90;93.10;;;;;;5076129;28;19912;-67
2023/05/24 03:43:14;;;;;;;;;;;20.90;93.00;;;;;;5094144;28;19942;-67
2023/05/24 03:45:39;;;;;;;;;;;20.90;93.20;;;;;;5094289;28;20398;-64
2023/05/24 03:48:05;;;;;;;;;;;20.90;93.20;;;;;;5076242;28;19908;-67
2023/05/24 03:50:30;;;;;;;;;;;20.90;93.20;;;;;;5094330;28;20254;-66
2023/05/24 03:52:56;;;;;;;;;;;20.90;93.30;;;;;;5093993;28;19911;-66
2023/05/24 03:55:21;;;;;;;;;;;20.90;93.30;;;;;;5093769;28;19915;-66
2023/05/24 03:57:47;;;;;;;;;;;20.90;93.30;;;;;;5094261;28;19953;-66
2023/05/24 04:00:12;;;;;;;;;;;20.90;93.30;;;;;;5094079;28;19919;-66
2023/05/24 04:02:38;;;;;;;;;;;20.90;93.30;;;;;;5094282;28;19911;-66
2023/05/24 04:05:04;;;;;;;;;;;20.90;93.30;;;;;;5094716;28;20296;-66
2023/05/24 04:07:32;;;;;;;;;;;20.80;93.30;;;;;;5100848;28;19994;-66
2023/05/24 04:09:58;;;;;;;;;;;20.90;93.30;;;;;;5100809;28;19904;-66
2023/05/24 04:12:23;;;;;;;;;;;20.80;93.30;;;;;;5082605;28;20015;-66
2023/05/24 04:14:50;;;;;;;;;;;20.80;93.20;;;;;;5100529;28;19904;-66
2023/05/24 04:17:16;;;;;;;;;;;20.80;93.10;;;;;;5098410;28;19912;-66
2023/05/24 04:19:41;;;;;;;;;;;20.80;93.20;;;;;;5100205;28;19919;-66
2023/05/24 04:22:07;;;;;;;;;;;20.80;93.20;;;;;;5100752;28;19911;-66
2023/05/24 04:24:32;;;;;;;;;;;20.90;93.20;;;;;;5113035;28;19908;-66
2023/05/24 04:26:58;;;;;;;;;;;20.90;93.20;;;;;;5101907;28;19908;-66
2023/05/24 04:29:25;;;;;;;;;;;20.90;93.30;;;;;;5100595;28;19904;-66
2023/05/24 04:31:51;;;;;;;;;;;20.80;93.30;;;;;;5100458;28;19916;-66
2023/05/24 04:34:16;;;;;;;;;;;20.80;93.30;;;;;;5100694;28;19904;-66
2023/05/24 04:36:42;;;;;;;;;;;20.80;93.30;;;;;;5110644;28;20011;-65
2023/05/24 04:39:07;;;;;;;;;;;20.80;93.30;;;;;;5118481;28;19915;-66
2023/05/24 04:41:34;;;;;;;;;;;20.80;93.40;;;;;;5118822;28;19939;-66
2023/05/24 04:44:00;;;;;;;;;;;20.80;93.60;;;;;;5118012;28;19915;-67
2023/05/24 04:46:26;;;;;;;;;;;20.80;93.60;;;;;;5113971;28;19935;-65
2023/05/24 04:48:52;;;;;;;;;;;20.80;93.60;;;;;;5120598;28;19904;-65
2023/05/24 04:51:20;;;;;;;;;;;20.90;92.80;;;;;;5113204;28;20210;-71
2023/05/24 04:53:46;;;;;;;;;;;20.80;91.60;;;;;;5120269;28;19907;-71
2023/05/24 04:56:13;;;;;;;;;;;20.90;92.60;;;;;;5120264;28;20288;-69
2023/05/24 04:58:39;;;;;;;;;;;20.90;92.70;;;;;;5118180;28;19912;-71
2023/05/24 05:01:05;;;;;;;;;;;20.90;92.70;;;;;;5117826;28;19911;-70
2023/05/24 05:03:31;;;;;;;;;;;20.90;92.70;;;;;;5109380;28;19999;-66
2023/05/24 05:05:56;;;;;;;;;;;20.90;92.60;;;;;;5105927;28;20038;-66
2023/05/24 05:08:22;;;;;;;;;;;20.90;91.50;;;;;;5120387;28;19912;-66
2023/05/24 05:10:47;;;;;;;;;;;20.90;92.10;;;;;;5119892;28;19911;-65
2023/05/24 05:13:13;;;;;;;;;;;20.90;92.30;;;;;;5120448;28;20243;-65
2023/05/24 05:15:38;;;;;;;;;;;20.90;92.30;;;;;;5120532;28;19915;-67
2023/05/24 05:18:04;;;;;;;;;;;20.90;92.40;;;;;;5116719;28;19908;-66
2023/05/24 05:20:29;;;;;;;;;;;20.90;92.40;;;;;;5116982;28;19919;-67
2023/05/24 05:22:54;;;;;;;;;;;20.90;92.40;;;;;;5098507;28;19912;-66
2023/05/24 05:25:20;;;;;;;;;;;20.90;92.50;;;;;;5116806;28;19933;-66
2023/05/24 05:27:45;;;;;;;;;;;20.80;92.50;;;;;;5099136;28;20289;-65
2023/05/24 05:30:11;;;;;;;;;;;20.90;92.60;;;;;;5117116;28;20389;-66
2023/05/24 05:32:37;;;;;;;;;;;20.90;92.60;;;;;;5117014;28;20003;-66
2023/05/24 05:35:03;;;;;;;;;;;20.90;92.60;;;;;;5117006;28;19914;-66
2023/05/24 05:37:29;;;;;;;;;;;20.90;92.60;;;;;;5116747;28;19914;-66
2023/05/24 05:39:55;;;;;;;;;;;20.90;92.60;;;;;;5116832;28;19934;-66
2023/05/24 05:42:21;;;;;;;;;;;20.90;92.70;;;;;;5116459;28;19912;-66
2023/05/24 05:44:46;;;;;;;;;;;20.90;92.70;;;;;;5116478;28;20007;-66
2023/05/24 05:47:11;;;;;;;;;;;20.90;92.60;;;;;;5115971;28;19915;-67
2023/05/24 05:49:37;;;;;;;;;;;20.90;92.70;;;;;;5116634;28;19915;-66
2023/05/24 05:52:06;;;;;;;;;;;20.90;92.90;;;;;;5116659;28;19911;-66
2023/05/24 05:54:31;;;;;;;;;;;20.90;92.70;;;;;;5116273;28;19915;-66
2023/05/24 05:56:57;;;;;;;;;;;20.90;92.70;;;;;;5116285;28;20290;-66
2023/05/24 05:59:22;;;;;;;;;;;20.90;92.70;;;;;;5098083;28;19960;-66
2023/05/24 06:01:48;;;;;;;;;;;20.90;92.70;;;;;;5116132;28;20010;-66
2023/05/24 06:04:14;;;;;;;;;;;20.90;92.70;;;;;;5116420;28;19915;-66
2023/05/24 06:06:39;;;;;;;;;;;20.90;92.60;;;;;;5116538;28;19934;-66
2023/05/24 06:09:05;;;;;;;;;;;20.90;92.60;;;;;;5116091;28;19961;-66
2023/05/24 06:11:31;;;;;;;;;;;20.90;92.60;;;;;;5116144;28;20366;-66
2023/05/24 06:13:56;;;;;;;;;;;20.90;92.60;;;;;;5115861;28;19914;-66
2023/05/24 06:16:22;;;;;;;;;;;20.90;92.70;;;;;;5116090;28;20366;-66
2023/05/24 06:18:47;;;;;;;;;;;20.90;92.70;;;;;;5115899;28;20010;-66
2023/05/24 06:21:13;;;;;;;;;;;20.90;92.70;;;;;;5115682;28;20419;-65
2023/05/24 06:23:39;;;;;;;;;;;20.90;92.60;;;;;;5116085;28;20303;-66
2023/05/24 06:26:05;;;;;;;;;;;20.90;92.60;;;;;;5116064;28;20044;-66
2023/05/24 06:28:31;;;;;;;;;;;21.00;92.60;;;;;;5115628;28;19949;-66
2023/05/24 06:30:56;;;;;;;;;;;21.00;92.50;;;;;;5115479;28;19915;-65
2023/05/24 06:33:22;;;;;;;;;;;21.00;92.60;;;;;;5115804;28;19918;-65
2023/05/24 06:35:47;;;;;;;;;;;21.00;92.50;;;;;;5097138;28;19908;-65
2023/05/24 06:38:13;;;;;;;;;;;20.90;92.30;;;;;;5115687;28;19908;-65
2023/05/24 06:40:39;;;;;;;;;;;21.00;92.40;;;;;;5115510;28;20362;-65
2023/05/24 06:43:04;;;;;;;;;;;21.00;92.40;;;;;;5115230;28;20017;-65
2023/05/24 06:45:30;;;;;;;;;;;21.00;92.40;;;;;;5115350;28;19908;-65
2023/05/24 06:47:55;;;;;;;;;;;20.90;92.40;;;;;;5115353;28;19912;-65
2023/05/24 06:50:21;;;;;;;;;;;21.00;92.50;;;;;;5115117;28;19919;-65
2023/05/24 06:52:47;;;;;;;;;;;20.90;92.40;;;;;;5115527;28;19908;-65
2023/05/24 06:55:12;;;;;;;;;;;20.90;92.40;;;;;;5115385;28;19908;-65
2023/05/24 06:57:38;;;;;;;;;;;20.90;92.40;;;;;;5115348;28;19908;-65
2023/05/24 07:00:10;;;;;;;;;;;20.90;92.50;;;;;;5114853;28;19916;-65
2023/05/24 07:02:36;;;;;;;;;;;20.90;92.50;;;;;;5115179;28;20056;-66
2023/05/24 07:05:02;;;;;;;;;;;20.90;92.50;;;;;;5114960;28;19949;-66
2023/05/24 07:07:27;;;;;;;;;;;20.90;92.40;;;;;;5114691;28;20369;-66
2023/05/24 07:09:52;;;;;;;;;;;20.90;92.40;;;;;;5115030;28;19907;-66
2023/05/24 07:12:18;;;;;;;;;;;20.90;92.40;;;;;;5115013;28;19907;-66
2023/05/24 07:14:43;;;;;;;;;;;20.90;92.40;;;;;;5114819;28;20389;-66
2023/05/24 07:17:09;;;;;;;;;;;20.90;92.40;;;;;;5114966;28;19911;-66
2023/05/24 07:19:34;;;;;;;;;;;21.00;92.40;;;;;;5114654;28;19958;-66
2023/05/24 07:22:00;;;;;;;;;;;21.00;92.30;;;;;;5114845;28;20371;-66
2023/05/24 07:24:25;;;;;;;;;;;21.00;92.30;;;;;;5114710;28;19918;-66
2023/05/24 07:26:56;;;;;;;;;;;21.00;92.30;;;;;;5114516;28;20286;-65
2023/05/24 07:29:21;;;;;;;;;;;20.90;92.30;;;;;;5115226;28;19907;-66
2023/05/24 07:31:47;;;;;;;;;;;20.90;92.30;;;;;;5114675;28;19974;-66
2023/05/24 07:34:13;;;;;;;;;;;21.00;92.30;;;;;;5114742;28;19908;-66
2023/05/24 07:36:39;;;;;;;;;;;20.90;92.30;;;;;;5114620;28;19908;-66
2023/05/24 07:39:05;;;;;;;;;;;20.90;92.30;;;;;;5114646;28;19916;-66
2023/05/24 07:41:32;;;;;;;;;;;21.00;92.30;;;;;;5113713;28;19912;-66
2023/05/24 07:43:57;;;;;;;;;;;20.90;92.30;;;;;;5114577;28;20373;-66
2023/05/24 07:46:23;;;;;;;;;;;20.90;92.20;;;;;;5114453;28;19908;-66
2023/05/24 07:48:48;;;;;;;;;;;21.00;92.30;;;;;;5114060;28;19908;-66
2023/05/24 07:51:14;;;;;;;;;;;20.90;92.30;;;;;;5096035;28;19960;-66
2023/05/24 07:53:39;;;;;;;;;;;21.00;92.30;;;;;;5096372;28;20220;-66
2023/05/24 07:56:07;;;;;;;;;;;21.00;92.30;;;;;;5113924;28;19911;-66
2023/05/24 07:58:32;;;;;;;;;;;20.90;92.20;;;;;;5114083;28;19951;-66
2023/05/24 08:00:58;;;;;;;;;;;20.90;92.20;;;;;;5114260;28;20398;-66
2023/05/24 08:03:24;;;;;;;;;;;21.00;92.20;;;;;;5114388;28;19915;-66
2023/05/24 08:05:50;;;;;;;;;;;20.90;92.20;;;;;;5113989;28;19908;-67
2023/05/24 08:08:16;;;;;;;;;;;20.90;92.20;;;;;;5114237;28;19919;-66
2023/05/24 08:10:41;;;;;;;;;;;21.00;92.20;;;;;;5113821;28;19908;-67
2023/05/24 08:13:07;;;;;;;;;;;21.00;92.20;;;;;;5114233;28;19907;-68
2023/05/24 08:15:32;;;;;;;;;;;21.00;92.30;;;;;;5114467;28;19908;-68
2023/05/24 08:17:58;;;;;;;;;;;21.00;92.20;;;;;;5114144;28;20010;-68
2023/05/24 08:20:24;;;;;;;;;;;20.90;92.10;;;;;;5114319;28;19998;-67
2023/05/24 08:22:49;;;;;;;;;;;21.00;92.20;;;;;;5113860;28;20420;-66
2023/05/24 08:25:15;;;;;;;;;;;21.00;92.20;;;;;;5095612;28;19908;-67
2023/05/24 08:27:40;;;;;;;;;;;21.00;92.20;;;;;;5114161;28;19994;-67
2023/05/24 08:30:07;;;;;;;;;;;21.00;92.10;;;;;;5114129;28;19915;-67
2023/05/24 08:32:32;;;;;;;;;;;20.90;92.10;;;;;;5114092;28;19908;-67
2023/05/24 08:34:58;;;;;;;;;;;21.00;92.10;;;;;;5114126;28;19931;-67
2023/05/24 08:37:23;;;;;;;;;;;21.00;92.20;;;;;;5113833;28;19908;-67
2023/05/24 08:39:49;;;;;;;;;;;20.90;92.10;;;;;;5113735;28;20022;-67
2023/05/24 08:42:15;;;;;;;;;;;20.90;92.20;;;;;;5095590;28;20362;-67
2023/05/24 08:44:46;;;;;;;;;;;21.00;92.20;;;;;;5113433;28;19973;-67
2023/05/24 08:47:12;;;;;;;;;;;20.90;92.10;;;;;;5095321;28;20002;-67
2023/05/24 08:49:38;;;;;;;;;;;21.00;92.20;;;;;;5095568;28;20286;-68
2023/05/24 08:52:06;;;;;;;;;;;20.90;92.30;;;;;;5115251;28;19908;-68
2023/05/24 08:54:33;;;;;;;;;;;20.90;92.10;;;;;;5117881;28;20061;-67
2023/05/24 08:56:58;;;;;;;;;;;20.90;92.10;;;;;;5117870;28;19914;-67
2023/05/24 08:59:24;;;;;;;;;;;20.90;92.20;;;;;;5117156;28;20365;-68
2023/05/24 09:01:51;;;;;;;;;;;20.90;92.20;;;;;;5117558;28;19907;-68
2023/05/24 09:04:17;;;;;;;;;;;20.90;92.20;;;;;;5117150;28;19908;-66
2023/05/24 09:06:42;;;;;;;;;;;20.90;92.20;;;;;;5117343;28;19908;-66
2023/05/24 09:09:09;;;;;;;;;;;20.90;92.10;;;;;;5117255;28;19908;-67
2023/05/24 09:11:34;;;;;;;;;;;20.90;92.20;;;;;;5117235;28;20349;-68
2023/05/24 09:14:00;;;;;;;;;;;20.90;92.10;;;;;;5117294;28;19957;-67
2023/05/24 09:16:26;;;;;;;;;;;20.90;92.10;;;;;;5117703;28;19951;-67
2023/05/24 09:18:52;;;;;;;;;;;20.90;92.10;;;;;;5117442;28;19943;-66
2023/05/24 09:21:18;;;;;;;;;;;20.90;92.10;;;;;;5117303;28;19929;-65
2023/05/24 09:23:44;;;;;;;;;;;20.90;92.10;;;;;;5098920;28;20434;-66
2023/05/24 09:26:10;;;;;;;;;;;20.90;92.10;;;;;;5117179;28;19998;-66
2023/05/24 09:28:36;;;;;;;;;;;20.90;92.00;;;;;;5117182;28;19915;-64
2023/05/24 09:31:02;;;;;;;;;;;20.90;92.00;;;;;;5117063;28;19908;-65
2023/05/24 09:33:31;;;;;;;;;;;20.90;92.10;;;;;;5098320;28;19957;-66
2023/05/24 09:35:58;;;;;;;;;;;20.90;92.10;;;;;;5116991;28;20004;-67
2023/05/24 09:38:24;;;;;;;;;;;20.90;92.10;;;;;;5117050;28;20291;-68
2023/05/24 09:41:03;;;;;;;;;;;20.90;92.10;;;;;;5116906;28;19934;-66
2023/05/24 09:43:30;;;;;;;;;;;20.90;92.10;;;;;;5116711;28;19927;-68
2023/05/24 09:45:56;;;;;;;;;;;20.90;92.00;;;;;;5116440;28;19911;-66
2023/05/24 09:48:22;;;;;;;;;;;20.90;92.00;;;;;;5116660;28;19918;-66
2023/05/24 09:51:08;;;;;;;;;;;20.90;92.00;;;;;;5116825;28;20002;-65
2023/05/24 09:53:34;;;;;;;;;;;20.90;92.00;;;;;;5116443;28;20374;-65
2023/05/24 09:56:02;;;;;;;;;;;20.90;92.00;;;;;;5116452;28;19908;-67
2023/05/24 09:58:30;;;;;;;;;;;20.90;92.10;;;;;;5116499;28;19908;-66
2023/05/24 10:01:02;;;;;;;;;;;20.90;92.10;;;;;;5116356;28;19919;-66
2023/05/24 10:03:27;;;;;;;;;;;20.90;92.10;;;;;;5115195;28;19915;-65
2023/05/24 10:05:53;;;;;;;;;;;20.90;92.10;;;;;;5115919;28;19908;-66
2023/05/24 10:08:21;;;;;;;;;;;20.90;92.10;;;;;;5116522;28;20014;-65
2023/05/24 10:10:46;;;;;;;;;;;20.90;92.00;;;;;;5116342;28;19912;-67
2023/05/24 10:13:14;;;;;;;;;;;20.90;91.90;;;;;;5116225;28;19908;-67
2023/05/24 10:15:40;;;;;;;;;;;20.90;92.00;;;;;;5116281;28;19915;-67
2023/05/24 10:18:07;;;;;;;;;;;20.90;92.00;;;;;;5115983;28;19912;-66
2023/05/24 10:20:33;;;;;;;;;;;20.90;92.10;;;;;;5097724;28;19916;-66
2023/05/24 10:23:02;;;;;;;;;;;20.90;92.10;;;;;;5116451;28;20366;-65
2023/05/24 10:25:28;;;;;;;;;;;20.90;92.10;;;;;;5116041;28;19914;-66
2023/05/24 10:27:56;;;;;;;;;;;20.90;92.10;;;;;;5115568;28;20252;-68
2023/05/24 10:30:36;;;;;;;;;;;20.80;92.00;;;;;;5115900;28;19912;-67
2023/05/24 10:33:05;;;;;;;;;;;20.80;92.10;;;;;;5115577;28;20056;-67
2023/05/24 10:35:30;;;;;;;;;;;20.80;92.10;;;;;;5115456;28;20364;-67
2023/05/24 10:37:56;;;;;;;;;;;20.80;92.10;;;;;;5116093;28;19911;-66
2023/05/24 10:40:25;;;;;;;;;;;20.80;92.10;;;;;;5115694;28;19926;-64
2023/05/24 10:42:51;;;;;;;;;;;20.80;92.10;;;;;;5115648;28;19908;-65
2023/05/24 10:45:23;;;;;;;;;;;20.80;92.10;;;;;;5115242;28;20358;-65
2023/05/24 10:47:49;;;;;;;;;;;20.80;92.10;;;;;;5115402;28;20313;-65
2023/05/24 10:50:18;;;;;;;;;;;20.80;92.10;;;;;;5115664;28;20015;-67
2023/05/24 10:52:44;;;;;;;;;;;20.80;92.10;;;;;;5115550;28;20268;-67
2023/05/24 10:55:10;;;;;;;;;;;20.80;92.00;;;;;;5115122;28;19908;-67
2023/05/24 10:57:37;;;;;;;;;;;20.80;92.00;;;;;;5115143;28;20366;-67
2023/05/24 11:00:27;;;;;;;;;;;20.80;91.90;;;;;;5115049;28;19915;-67
2023/05/24 11:03:02;;;;;;;;;;;20.80;92.00;;;;;;5115415;28;19914;-65
2023/05/24 11:05:35;;;;;;;;;;;20.80;92.00;;;;;;5114973;28;20374;-68
2023/05/24 11:08:01;;;;;;;;;;;20.80;92.00;;;;;;5115584;28;20005;-66
2023/05/24 11:10:31;;;;;;;;;;;20.80;92.00;;;;;;5114799;28;19907;-68
2023/05/24 11:13:01;;;;;;;;;;;20.80;92.00;;;;;;5114513;28;20247;-65
2023/05/24 11:15:27;;;;;;;;;;;20.80;92.10;;;;;;5114035;28;20332;-67
2023/05/24 11:18:08;;;;;;;;;;;20.80;92.00;;;;;;5114805;28;19968;-65
2023/05/24 11:20:34;;;;;;;;;;;20.80;92.00;;;;;;5114583;28;19916;-64
2023/05/24 11:23:03;;;;;;;;;;;20.80;92.00;;;;;;5114725;28;19907;-66
2023/05/24 11:25:28;;;;;;;;;;;20.80;92.00;;;;;;5114563;28;19908;-66
2023/05/24 11:27:57;;;;;;;;;;;20.80;91.90;;;;;;5114441;28;19908;-66
2023/05/24 11:30:22;;;;;;;;;;;20.80;91.90;;;;;;5115057;28;20007;-66
2023/05/24 11:32:48;;;;;;;;;;;20.80;91.90;;;;;;5114391;28;19939;-67
2023/05/24 11:35:14;;;;;;;;;;;20.80;91.90;;;;;;5114649;28;19907;-67
2023/05/24 11:37:41;;;;;;;;;;;20.80;92.00;;;;;;5114563;28;19915;-66
2023/05/24 11:40:09;;;;;;;;;;;20.80;92.10;;;;;;5114235;28;20266;-67
2023/05/24 11:42:36;;;;;;;;;;;20.80;92.10;;;;;;5114421;28;19908;-66
2023/05/24 11:45:05;;;;;;;;;;;20.80;92.10;;;;;;5114514;28;19908;-67
2023/05/24 11:47:34;;;;;;;;;;;20.80;92.10;;;;;;5114598;28;19915;-68
2023/05/24 11:50:00;;;;;;;;;;;20.80;92.10;;;;;;5114680;28;19951;-68
2023/05/24 11:52:25;;;;;;;;;;;20.80;92.10;;;;;;5114447;28;19943;-67
2023/05/24 11:54:51;;;;;;;;;;;20.80;92.10;;;;;;5114117;28;19908;-67
2023/05/24 11:57:18;;;;;;;;;;;20.80;92.10;;;;;;5096206;28;19931;-68
2023/05/24 11:59:43;;;;;;;;;;;20.80;92.20;;;;;;5114351;28;19915;-68
2023/05/24 12:02:09;;;;;;;;;;;20.80;92.10;;;;;;5114027;28;19974;-68
2023/05/24 12:04:34;;;;;;;;;;;20.80;92.20;;;;;;5113952;28;19908;-67
2023/05/24 12:07:00;;;;;;;;;;;20.80;92.10;;;;;;5114216;28;19907;-69
2023/05/24 12:09:26;;;;;;;;;;;20.80;92.10;;;;;;5113592;28;20007;-68
2023/05/24 12:11:52;;;;;;;;;;;20.80;92.10;;;;;;5113969;28;19908;-65
2023/05/24 12:14:19;;;;;;;;;;;20.80;92.10;;;;;;5114144;28;19933;-67
2023/05/24 12:16:45;;;;;;;;;;;20.80;92.20;;;;;;5113998;28;20296;-67
2023/05/24 12:19:19;;;;;;;;;;;20.80;92.10;;;;;;5114034;28;19916;-67
2023/05/24 12:21:48;;;;;;;;;;;20.80;92.10;;;;;;5114008;28;19946;-67
2023/05/24 12:24:16;;;;;;;;;;;20.70;92.10;;;;;;5113994;28;19961;-67
2023/05/24 12:26:45;;;;;;;;;;;20.70;92.20;;;;;;5096763;28;20312;-67
2023/05/24 12:29:11;;;;;;;;;;;20.70;92.20;;;;;;5117994;28;19921;-67
2023/05/24 12:31:38;;;;;;;;;;;20.70;92.20;;;;;;5099837;28;19908;-67
2023/05/24 12:34:05;;;;;;;;;;;20.70;92.20;;;;;;5118084;28;19907;-67
2023/05/24 12:36:31;;;;;;;;;;;20.70;92.20;;;;;;5117955;28;19915;-67
2023/05/24 12:38:57;;;;;;;;;;;20.70;92.20;;;;;;5117878;28;19933;-67
2023/05/24 12:41:23;;;;;;;;;;;20.70;92.20;;;;;;5117515;28;19912;-67
2023/05/24 12:43:50;;;;;;;;;;;20.70;92.10;;;;;;5117891;28;20463;-67
2023/05/24 12:46:15;;;;;;;;;;;20.70;92.20;;;;;;5117424;28;19974;-67
2023/05/24 12:48:40;;;;;;;;;;;20.70;92.20;;;;;;5099509;28;19955;-67
2023/05/24 12:51:07;;;;;;;;;;;20.70;92.20;;;;;;5117826;28;19958;-67
2023/05/24 12:53:32;;;;;;;;;;;20.70;92.10;;;;;;5117923;28;19907;-67
2023/05/24 12:55:59;;;;;;;;;;;20.80;92.10;;;;;;5117631;28;19912;-67
2023/05/24 12:58:25;;;;;;;;;;;20.70;92.10;;;;;;5117868;28;19908;-66
2023/05/24 13:00:51;;;;;;;;;;;20.70;92.10;;;;;;5117620;28;19987;-67
2023/05/24 13:03:16;;;;;;;;;;;20.70;92.10;;;;;;5117550;28;19916;-67
2023/05/24 13:05:42;;;;;;;;;;;20.70;92.10;;;;;;5098998;28;19911;-67
2023/05/24 13:08:07;;;;;;;;;;;20.70;92.20;;;;;;5098718;28;19908;-67
2023/05/24 13:10:33;;;;;;;;;;;20.70;92.20;;;;;;5117219;28;19915;-67
2023/05/24 13:12:58;;;;;;;;;;;20.70;92.20;;;;;;5117175;28;19908;-67
2023/05/24 13:15:26;;;;;;;;;;;20.70;92.10;;;;;;5116900;28;19931;-67
2023/05/24 13:17:52;;;;;;;;;;;20.70;92.10;;;;;;5117045;28;19907;-67
2023/05/24 13:20:20;;;;;;;;;;;20.70;92.20;;;;;;5116973;28;19923;-67
2023/05/24 13:22:46;;;;;;;;;;;20.70;92.20;;;;;;5117005;28;20011;-67
2023/05/24 13:25:11;;;;;;;;;;;20.70;92.10;;;;;;5116825;28;20423;-67
2023/05/24 13:27:37;;;;;;;;;;;20.70;92.20;;;;;;5117438;28;20361;-67
2023/05/24 13:30:04;;;;;;;;;;;20.70;92.20;;;;;;5117158;28;19911;-67
2023/05/24 13:32:30;;;;;;;;;;;20.70;92.20;;;;;;5117098;28;19912;-67
2023/05/24 13:34:56;;;;;;;;;;;20.70;92.20;;;;;;5116670;28;20379;-66
2023/05/24 13:37:22;;;;;;;;;;;20.70;92.20;;;;;;5116797;28;19911;-67
2023/05/24 13:39:48;;;;;;;;;;;20.70;92.20;;;;;;5115599;28;20338;-67
2023/05/24 13:42:14;;;;;;;;;;;20.70;92.20;;;;;;5116841;28;19908;-69
2023/05/24 13:44:40;;;;;;;;;;;20.70;92.20;;;;;;5116554;28;19934;-67
2023/05/24 13:47:07;;;;;;;;;;;20.70;92.20;;;;;;5098455;28;19916;-67
2023/05/24 13:49:32;;;;;;;;;;;20.70;92.20;;;;;;5098317;28;19930;-67
2023/05/24 13:51:58;;;;;;;;;;;20.70;92.20;;;;;;5116218;28;20378;-66
2023/05/24 13:54:23;;;;;;;;;;;20.70;92.20;;;;;;5116522;28;19907;-67
2023/05/24 13:56:49;;;;;;;;;;;20.70;92.10;;;;;;5116365;28;19908;-67
2023/05/24 13:59:15;;;;;;;;;;;20.70;92.20;;;;;;5115944;28;19923;-67
2023/05/24 14:01:41;;;;;;;;;;;20.70;92.20;;;;;;5109709;28;19995;-67
2023/05/24 14:04:06;;;;;;;;;;;20.70;92.20;;;;;;5093124;28;20259;-67
2023/05/24 14:06:32;;;;;;;;;;;20.70;92.20;;;;;;5094476;28;20365;-67
2023/05/24 14:08:58;;;;;;;;;;;20.70;92.20;;;;;;5089006;28;20376;-67
2023/05/24 14:11:24;;;;;;;;;;;20.60;92.20;;;;;;5099255;28;20007;-67